Time;durP1;ratioP1;P1;durP2;ratioP2;P2;SDS_P1;SDS_P2;PMS_P1;PMS_P2;Temp;Humidity;BMP_temperature;BMP_pressure;BME280_temperature;BME280_humidity;BME280_pressure;Samples;Min_cycle;Max_cycle;Signal;HPM_P1;HPM_P2
2023/08/08 00:01:17;;;;;;;3.65;1.00;;;;;;;18.64;47.85;98929.34;5134920;27;20058;-47
2023/08/08 00:03:43;;;;;;;9.35;2.22;;;;;;;18.56;47.96;98929.75;5136414;27;20026;-47
2023/08/08 00:06:08;;;;;;;1.92;0.90;;;;;;;18.46;48.03;98919.81;5135058;27;20026;-47
2023/08/08 00:08:34;;;;;;;3.50;1.27;;;;;;;18.34;48.94;98929.75;5136244;27;20772;-47
2023/08/08 00:11:00;;;;;;;4.40;1.25;;;;;;;18.42;49.00;98920.53;5135983;27;20039;-47
2023/08/08 00:13:26;;;;;;;3.70;1.33;;;;;;;18.71;49.04;98922.00;5134849;27;20031;-47
2023/08/08 00:15:51;;;;;;;2.45;1.10;;;;;;;19.03;47.93;98923.16;5136113;27;20439;-47
2023/08/08 00:18:17;;;;;;;6.07;1.58;;;;;;;18.75;48.21;98927.59;5136098;27;20042;-47
2023/08/08 00:20:42;;;;;;;2.65;1.30;;;;;;;18.84;48.35;98922.69;5134725;27;20054;-47
2023/08/08 00:23:08;;;;;;;5.15;1.48;;;;;;;18.88;48.18;98923.81;5134593;27;20147;-47
2023/08/08 00:25:34;;;;;;;5.45;1.48;;;;;;;18.98;48.30;98923.91;5134723;27;20019;-47
2023/08/08 00:27:59;;;;;;;4.47;1.30;;;;;;;19.12;48.42;98922.47;5135861;27;20026;-47
2023/08/08 00:30:25;;;;;;;4.53;1.40;;;;;;;19.27;47.94;98911.16;5134531;27;20151;-47
2023/08/08 00:32:51;;;;;;;4.00;1.10;;;;;;;19.34;47.66;98910.97;5134559;27;20091;-47
2023/08/08 00:35:16;;;;;;;16.50;1.95;;;;;;;19.22;47.84;98902.34;5134410;27;20023;-47
2023/08/08 00:37:42;;;;;;;3.15;0.75;;;;;;;19.15;47.58;98903.31;5136026;27;20477;-47
2023/08/08 00:40:08;;;;;;;2.40;1.00;;;;;;;18.56;47.89;98901.31;5135644;27;20488;-47
2023/08/08 00:42:34;;;;;;;3.33;1.20;;;;;;;18.04;49.40;98906.22;5134212;27;20047;-47
2023/08/08 00:45:03;;;;;;;5.15;1.73;;;;;;;18.05;50.21;98905.13;5134389;27;20031;-47
2023/08/08 00:47:33;;;;;;;10.50;1.60;;;;;;;18.25;50.41;98901.97;5134252;27;20019;-47
2023/08/08 00:50:00;;;;;;;5.43;1.50;;;;;;;18.20;49.93;98901.91;5117254;27;20067;-47
2023/08/08 00:52:26;;;;;;;6.47;1.60;;;;;;;18.28;50.43;98896.19;5134432;27;20400;-47
2023/08/08 00:54:53;;;;;;;7.72;1.52;;;;;;;18.27;50.11;98897.22;5134152;27;20023;-47
2023/08/08 00:57:19;;;;;;;5.55;1.73;;;;;;;18.03;50.74;98892.13;5135256;27;20023;-47
2023/08/08 00:59:45;;;;;;;10.25;1.95;;;;;;;18.10;51.34;98898.06;5135362;27;20590;-47
2023/08/08 01:02:11;;;;;;;5.80;1.25;;;;;;;18.13;50.55;98891.47;5135376;27;20031;-47
2023/08/08 01:04:38;;;;;;;1.73;0.90;;;;;;;17.90;50.81;98895.09;5133902;27;20031;-47
2023/08/08 01:07:08;;;;;;;5.35;1.55;;;;;;;17.48;51.51;98898.94;5135071;27;20023;-47
2023/08/08 01:09:42;;;;;;;7.57;1.80;;;;;;;17.32;53.06;98894.41;5134597;27;20039;-47
2023/08/08 01:12:11;;;;;;;5.00;1.15;;;;;;;17.32;53.00;98892.56;5133005;27;20107;-47
2023/08/08 01:14:38;;;;;;;4.05;1.20;;;;;;;17.10;52.61;98905.72;5134978;27;20045;-47
2023/08/08 01:17:05;;;;;;;1.95;1.10;;;;;;;16.77;53.37;98895.78;5134949;27;20034;-47
2023/08/08 01:19:35;;;;;;;7.50;1.30;;;;;;;16.18;54.71;98888.75;5134963;27;20019;-47
2023/08/08 01:22:19;;;;;;;10.00;1.77;;;;;;;15.93;56.43;98896.91;5133668;27;20106;-47
2023/08/08 01:24:45;;;;;;;7.60;1.67;;;;;;;15.99;56.89;98905.78;5133576;27;20030;-47
2023/08/08 01:27:11;;;;;;;6.82;1.40;;;;;;;16.21;56.43;98902.56;5133453;27;20027;-47
2023/08/08 01:29:39;;;;;;;8.25;1.60;;;;;;;16.36;56.23;98900.25;5133436;27;20019;-47
2023/08/08 01:32:04;;;;;;;1.65;1.25;;;;;;;16.42;55.70;98898.50;5134724;27;20023;-47
2023/08/08 01:34:30;;;;;;;8.38;1.60;;;;;;;16.25;56.26;98893.13;5133299;27;20019;-47
2023/08/08 01:37:02;;;;;;;10.13;1.92;;;;;;;16.20;56.76;98893.81;5134567;27;20051;-47
2023/08/08 01:39:32;;;;;;;3.05;1.50;;;;;;;16.49;56.62;98893.88;5134582;27;20024;-47
2023/08/08 01:41:59;;;;;;;9.90;1.77;;;;;;;16.83;55.79;98900.16;5134415;27;20064;-47
2023/08/08 01:44:26;;;;;;;11.45;1.50;;;;;;;16.97;55.27;98901.50;5134455;27;20019;-47
2023/08/08 01:46:53;;;;;;;9.95;1.35;;;;;;;16.88;54.74;98902.94;5134357;27;20027;-47
2023/08/08 01:49:19;;;;;;;2.63;1.20;;;;;;;16.60;54.66;98900.19;5134411;27;20016;-47
2023/08/08 01:51:45;;;;;;;4.80;1.60;;;;;;;16.12;55.68;98896.81;5133055;27;20545;-47
2023/08/08 01:54:11;;;;;;;7.63;1.33;;;;;;;15.66;56.69;98896.53;5134254;27;20019;-47
2023/08/08 01:56:37;;;;;;;3.22;1.17;;;;;;;15.24;58.08;98893.91;5132866;27;20073;-47
2023/08/08 01:59:02;;;;;;;6.78;1.38;;;;;;;15.06;58.93;98905.31;5132839;27;20023;-46
2023/08/08 02:01:28;;;;;;;3.60;1.35;;;;;;;15.00;59.37;98892.22;5132654;27;20027;-47
2023/08/08 02:03:54;;;;;;;3.50;1.58;;;;;;;15.01;59.70;98888.53;5134059;27;20020;-47
2023/08/08 02:06:19;;;;;;;3.42;1.30;;;;;;;14.80;59.92;98889.81;5132628;27;20027;-47
2023/08/08 02:08:46;;;;;;;3.03;1.27;;;;;;;14.44;60.69;98889.59;5132858;27;20039;-47
2023/08/08 02:11:11;;;;;;;4.68;1.27;;;;;;;14.20;61.82;98888.63;5132351;27;20551;-47
2023/08/08 02:13:37;;;;;;;3.92;1.10;;;;;;;13.96;62.88;98870.00;5132520;27;20027;-47
2023/08/08 02:16:06;;;;;;;6.20;5.25;;;;;;;13.98;63.42;98883.78;5132808;27;20506;-47
2023/08/08 02:18:31;;;;;;;2.50;2.08;;;;;;;14.02;63.86;98872.78;5132482;27;20023;-47
2023/08/08 02:20:57;;;;;;;3.40;1.52;;;;;;;14.07;63.96;98873.72;5133618;27;20025;-47
2023/08/08 02:23:23;;;;;;;3.10;1.02;;;;;;;13.94;64.02;98879.13;5133435;27;20055;-47
2023/08/08 02:25:48;;;;;;;4.55;1.25;;;;;;;13.93;64.24;98878.31;5133634;27;20058;-47
2023/08/08 02:28:14;;;;;;;7.32;2.33;;;;;;;13.82;64.44;98888.78;5132536;27;20062;-47
2023/08/08 02:30:40;;;;;;;3.97;1.55;;;;;;;13.64;64.68;98898.25;5132230;27;20023;-47
2023/08/08 02:33:05;;;;;;;3.30;1.20;;;;;;;13.65;65.01;98897.22;5133802;27;20023;-47
2023/08/08 02:35:31;;;;;;;3.63;1.27;;;;;;;13.74;65.28;98895.97;5132090;27;20072;-47
2023/08/08 02:37:57;;;;;;;4.22;1.88;;;;;;;13.75;64.91;98902.84;5132077;27;20046;-47
2023/08/08 02:40:23;;;;;;;4.25;1.20;;;;;;;13.67;64.90;98895.19;5132540;27;20070;-47
2023/08/08 02:42:49;;;;;;;7.43;2.75;;;;;;;13.61;65.23;98893.41;5131886;27;20039;-46
2023/08/08 02:45:15;;;;;;;1.77;1.38;;;;;;;13.77;65.20;98894.72;5132211;27;20015;-47
2023/08/08 02:47:41;;;;;;;5.80;1.58;;;;;;;13.79;65.20;98900.56;5133253;27;20118;-47
2023/08/08 02:50:07;;;;;;;4.65;1.17;;;;;;;13.92;65.35;98903.13;5132098;27;20031;-47
2023/08/08 02:52:35;;;;;;;5.22;2.15;;;;;;;14.05;64.64;98896.09;5133440;27;20069;-47
2023/08/08 02:55:02;;;;;;;3.78;1.73;;;;;;;13.83;64.65;98893.84;5131790;27;20043;-47
2023/08/08 02:57:28;;;;;;;5.00;1.70;;;;;;;13.75;65.16;98894.91;5132086;27;20108;-47
2023/08/08 02:59:54;;;;;;;2.60;1.55;;;;;;;13.88;65.11;98890.56;5133108;27;20648;-47
2023/08/08 03:02:19;;;;;;;4.28;1.98;;;;;;;13.91;64.83;98890.13;5131853;27;20030;-47
2023/08/08 03:04:45;;;;;;;5.78;2.33;;;;;;;13.90;64.81;98893.78;5132969;27;20023;-47
2023/08/08 03:07:11;;;;;;;4.28;1.73;;;;;;;13.84;64.61;98892.00;5131864;27;20063;-46
2023/08/08 03:09:36;;;;;;;2.40;0.90;;;;;;;13.88;64.90;98895.81;5131858;27;20031;-47
2023/08/08 03:12:02;;;;;;;2.22;1.20;;;;;;;14.03;64.96;98904.22;5132603;27;20047;-47
2023/08/08 03:14:28;;;;;;;3.30;2.80;;;;;;;14.06;64.31;98897.69;5131475;27;20026;-47
2023/08/08 03:16:54;;;;;;;3.08;1.70;;;;;;;13.94;64.19;98895.78;5132832;27;20043;-46
2023/08/08 03:19:19;;;;;;;1.90;1.13;;;;;;;13.93;64.18;98888.88;5131781;27;20035;-47
2023/08/08 03:21:45;;;;;;;4.13;1.30;;;;;;;13.91;63.90;98890.13;5131389;27;20414;-47
2023/08/08 03:24:11;;;;;;;14.18;1.90;;;;;;;13.84;64.43;98881.47;5131465;28;20169;-47
2023/08/08 03:26:36;;;;;;;3.58;1.67;;;;;;;13.84;64.67;98892.81;5132739;27;20072;-47
2023/08/08 03:29:02;;;;;;;4.10;1.40;;;;;;;13.76;64.25;98883.34;5132762;27;20484;-47
2023/08/08 03:31:28;;;;;;;3.92;1.40;;;;;;;13.67;64.59;98879.38;5132688;27;20067;-47
2023/08/08 03:33:54;;;;;;;5.10;1.60;;;;;;;13.51;64.94;98880.69;5132726;27;20027;-47
2023/08/08 03:36:20;;;;;;;5.82;1.98;;;;;;;13.57;65.22;98882.47;5135912;27;20026;-46
2023/08/08 03:38:46;;;;;;;5.10;1.50;;;;;;;13.55;65.47;98876.63;5136905;27;20026;-47
2023/08/08 03:41:13;;;;;;;2.42;1.15;;;;;;;13.48;65.18;98875.88;5118643;27;20071;-46
2023/08/08 03:43:39;;;;;;;1.40;1.10;;;;;;;13.33;65.84;98883.28;5136783;27;20019;-47
2023/08/08 03:46:05;;;;;;;3.90;1.20;;;;;;;13.00;66.52;98892.16;5136727;27;20059;-47
2023/08/08 03:48:31;;;;;;;4.88;1.20;;;;;;;12.74;67.67;98882.56;5136635;27;20050;-47
2023/08/08 03:50:57;;;;;;;3.35;1.48;;;;;;;12.73;68.21;98891.47;5136712;27;20027;-47
2023/08/08 03:53:23;;;;;;;3.17;0.98;;;;;;;12.74;67.90;98890.47;5136588;27;20019;-47
2023/08/08 03:55:48;;;;;;;3.97;0.95;;;;;;;12.67;68.19;98897.56;5135219;27;20030;-46
2023/08/08 03:58:14;;;;;;;4.18;1.10;;;;;;;12.53;68.93;98899.44;5135150;27;20392;-49
2023/08/08 04:00:45;;;;;;;4.57;1.40;;;;;;;12.36;69.23;98899.88;5135279;27;20015;-49
2023/08/08 04:03:14;;;;;;;3.65;1.63;;;;;;;12.24;70.28;98900.72;5136645;27;20058;-48
2023/08/08 04:05:40;;;;;;;7.88;1.50;;;;;;;12.17;70.47;98901.56;5136633;27;20027;-48
2023/08/08 04:08:06;;;;;;;4.75;2.35;;;;;;;12.34;70.64;98909.00;5136555;27;20056;-49
2023/08/08 04:10:32;;;;;;;4.72;1.98;;;;;;;12.55;70.14;98907.94;5134945;27;20553;-49
2023/08/08 04:12:58;;;;;;;8.93;2.63;;;;;;;12.68;69.68;98910.53;5136240;27;20152;-48
2023/08/08 04:15:23;;;;;;;9.60;2.05;;;;;;;12.82;69.10;98906.03;5136379;27;20023;-48
2023/08/08 04:17:49;;;;;;;7.93;1.90;;;;;;;12.74;68.60;98912.31;5136153;27;20484;-48
2023/08/08 04:20:15;;;;;;;8.00;1.67;;;;;;;12.87;68.89;98915.91;5118039;27;20023;-48
2023/08/08 04:22:41;;;;;;;6.93;1.30;;;;;;;13.11;68.86;98917.81;5136232;27;20480;-49
2023/08/08 04:25:07;;;;;;;16.38;11.00;;;;;;;13.30;67.79;98917.94;5135968;27;20046;-49
2023/08/08 04:27:33;;;;;;;10.05;5.10;;;;;;;13.45;67.31;98920.31;5135935;27;20020;-48
2023/08/08 04:29:59;;;;;;;10.65;2.33;;;;;;;13.43;66.76;98909.97;5134781;27;20088;-49
2023/08/08 04:32:25;;;;;;;6.82;1.83;;;;;;;13.30;66.30;98910.03;5134488;27;20442;-49
2023/08/08 04:34:50;;;;;;;7.47;2.40;;;;;;;13.25;66.64;98915.13;5134500;27;20461;-48
2023/08/08 04:37:16;;;;;;;6.55;1.55;;;;;;;13.23;66.82;98907.41;5135698;27;20076;-48
2023/08/08 04:39:43;;;;;;;4.25;1.40;;;;;;;13.12;66.46;98908.09;5134438;27;20469;-48
2023/08/08 04:42:08;;;;;;;9.05;1.60;;;;;;;12.99;66.93;98911.59;5135835;27;20012;-49
2023/08/08 04:44:34;;;;;;;3.60;1.60;;;;;;;12.85;67.52;98912.69;5135507;27;20098;-49
2023/08/08 04:47:00;;;;;;;4.63;1.20;;;;;;;12.62;67.97;98908.72;5135540;27;20102;-49
2023/08/08 04:49:25;;;;;;;1.98;1.10;;;;;;;12.42;68.75;98914.06;5134347;27;20454;-49
2023/08/08 04:51:51;;;;;;;1.80;1.35;;;;;;;12.27;69.19;98914.25;5134141;27;20243;-49
2023/08/08 04:54:17;;;;;;;4.72;1.27;;;;;;;12.20;69.57;98916.13;5134084;27;20062;-48
2023/08/08 04:56:42;;;;;;;4.82;1.70;;;;;;;12.40;69.86;98916.06;5135354;27;20026;-48
2023/08/08 04:59:08;;;;;;;3.53;1.85;;;;;;;12.44;69.72;98914.66;5135332;27;20023;-49
2023/08/08 05:01:33;;;;;;;5.75;2.90;;;;;;;12.42;69.36;98913.25;5135218;27;20019;-49
2023/08/08 05:03:59;;;;;;;26.80;18.15;;;;;;;12.58;69.98;98910.97;5133903;27;20027;-48
2023/08/08 05:06:25;;;;;;;9.65;3.38;;;;;;;12.84;69.04;98925.06;5135442;27;20556;-49
2023/08/08 05:08:51;;;;;;;14.55;3.13;;;;;;;12.92;68.62;98930.09;5133888;27;20027;-49
2023/08/08 05:11:17;;;;;;;2.55;1.45;;;;;;;12.87;68.29;98929.09;5133498;27;20045;-49
2023/08/08 05:13:43;;;;;;;4.40;1.40;;;;;;;12.72;68.48;98926.72;5135126;27;20023;-49
2023/08/08 05:16:09;;;;;;;3.97;1.65;;;;;;;12.71;68.20;98933.00;5135300;27;20027;-49
2023/08/08 05:18:34;;;;;;;4.05;1.20;;;;;;;12.91;68.84;98928.44;5133953;27;20019;-49
2023/08/08 05:21:00;;;;;;;5.45;1.55;;;;;;;12.94;67.83;98935.16;5134912;27;20042;-49
2023/08/08 05:23:26;;;;;;;8.40;1.70;;;;;;;12.84;68.08;98937.41;5133469;27;20019;-49
2023/08/08 05:25:51;;;;;;;7.00;1.73;;;;;;;12.80;68.49;98944.94;5134829;27;20116;-49
2023/08/08 05:28:17;;;;;;;3.78;1.27;;;;;;;12.69;68.38;98941.09;5133747;27;20019;-49
2023/08/08 05:30:42;;;;;;;4.47;1.20;;;;;;;12.59;68.75;98946.00;5134702;27;20442;-48
2023/08/08 05:33:08;;;;;;;6.05;2.13;;;;;;;12.48;69.43;98944.00;5134702;27;20034;-49
2023/08/08 05:35:34;;;;;;;3.00;1.40;;;;;;;12.45;69.64;98947.84;5133359;27;20057;-48
2023/08/08 05:38:00;;;;;;;6.32;1.90;;;;;;;12.46;69.70;98946.84;5134594;27;20526;-48
2023/08/08 05:40:25;;;;;;;8.65;1.65;;;;;;;12.62;70.06;98948.22;5133236;27;20027;-49
2023/08/08 05:42:51;;;;;;;10.50;1.80;;;;;;;13.19;69.52;98940.50;5134443;27;20098;-49
2023/08/08 05:45:17;;;;;;;8.13;2.08;;;;;;;14.11;67.70;98945.38;5133058;27;20019;-49
2023/08/08 05:47:42;;;;;;;9.77;2.30;;;;;;;15.81;63.53;98940.28;5133091;27;20027;-49
2023/08/08 05:50:08;;;;;;;6.95;1.48;;;;;;;18.17;56.88;98937.75;5134539;27;20020;-49
2023/08/08 05:52:34;;;;;;;9.52;2.15;;;;;;;19.79;51.18;98923.09;5132952;27;20518;-47
2023/08/08 05:55:00;;;;;;;6.75;1.48;;;;;;;21.03;46.74;98925.38;5134257;27;20035;-47
2023/08/08 05:57:26;;;;;;;4.82;1.50;;;;;;;22.10;44.69;98924.66;5132284;27;20047;-47
2023/08/08 05:59:52;;;;;;;7.53;1.73;;;;;;;22.72;41.52;98933.34;5134171;27;20057;-47
2023/08/08 06:02:18;;;;;;;6.18;1.90;;;;;;;23.12;40.18;98928.09;5134060;27;20047;-47
2023/08/08 06:04:45;;;;;;;9.02;1.88;;;;;;;23.69;39.47;98923.91;5134023;27;20027;-47
2023/08/08 06:07:10;;;;;;;12.52;2.83;;;;;;;24.67;37.69;98922.97;5133946;27;20443;-47
2023/08/08 06:09:40;;;;;;;11.73;2.28;;;;;;;25.55;35.32;98920.69;5133921;27;20035;-47
2023/08/08 06:12:06;;;;;;;12.30;3.15;;;;;;;26.00;34.74;98925.66;5133667;27;20039;-48
2023/08/08 06:14:32;;;;;;;16.35;3.33;;;;;;;26.72;33.35;98921.59;5132512;27;20023;-47
2023/08/08 06:16:57;;;;;;;17.30;2.72;;;;;;;27.23;32.67;98921.31;5132393;27;20023;-47
2023/08/08 06:19:23;;;;;;;12.38;1.98;;;;;;;28.01;31.18;98918.34;5132490;27;20059;-47
2023/08/08 06:21:50;;;;;;;5.53;1.50;;;;;;;28.67;30.17;98918.47;5133657;27;20507;-47
2023/08/08 06:24:15;;;;;;;8.88;2.25;;;;;;;28.66;29.54;98919.56;5133681;27;20106;-48
2023/08/08 06:26:41;;;;;;;12.23;2.35;;;;;;;28.65;29.60;98926.09;5132336;27;20636;-48
2023/08/08 06:29:07;;;;;;;23.17;3.60;;;;;;;29.04;28.90;98913.56;5132264;27;20111;-47
2023/08/08 06:31:32;;;;;;;17.83;3.13;;;;;;;29.58;28.27;98929.50;5133511;27;20058;-48
2023/08/08 06:33:58;;;;;;;26.65;3.42;;;;;;;30.09;27.53;98929.69;5133742;27;20023;-47
2023/08/08 06:36:24;;;;;;;11.55;2.58;;;;;;;30.45;26.71;98926.53;5133698;27;20439;-48
2023/08/08 06:38:49;;;;;;;45.85;6.70;;;;;;;30.84;26.40;98927.25;5133386;27;20630;-47
2023/08/08 06:41:15;;;;;;;16.33;2.95;;;;;;;31.21;25.99;98927.50;5133370;27;20023;-47
2023/08/08 06:43:41;;;;;;;32.30;4.50;;;;;;;31.61;25.60;98926.22;5132053;27;20389;-47
2023/08/08 06:46:06;;;;;;;24.63;2.88;;;;;;;32.17;25.10;98933.94;5132226;27;20027;-47
2023/08/08 06:48:32;;;;;;;16.00;2.75;;;;;;;32.74;24.13;98929.53;5131945;27;20027;-48
2023/08/08 06:50:58;;;;;;;23.75;2.85;;;;;;;33.32;23.60;98934.72;5133205;27;20027;-47
2023/08/08 06:53:24;;;;;;;29.63;3.40;;;;;;;33.81;22.93;98939.97;5133193;27;20102;-48
2023/08/08 06:55:49;;;;;;;10.77;2.03;;;;;;;33.96;22.19;98941.13;5133468;27;20023;-48
2023/08/08 06:58:15;;;;;;;16.13;2.08;;;;;;;33.69;22.54;98940.03;5133082;27;20083;-47
2023/08/08 07:00:41;;;;;;;12.43;1.83;;;;;;;33.60;22.92;98942.88;5133155;27;20019;-47
2023/08/08 07:03:06;;;;;;;31.65;3.92;;;;;;;33.41;22.72;98936.16;5132930;27;20062;-48
2023/08/08 07:05:32;;;;;;;19.90;3.05;;;;;;;33.03;23.16;98937.41;5133354;27;20062;-47
2023/08/08 07:07:58;;;;;;;7.93;1.90;;;;;;;33.14;23.48;98943.19;5132268;27;20019;-48
2023/08/08 07:10:23;;;;;;;12.70;2.35;;;;;;;33.11;23.25;98943.88;5132480;27;20051;-48
2023/08/08 07:12:49;;;;;;;6.80;1.95;;;;;;;33.34;22.87;98946.06;5131662;27;20027;-48
2023/08/08 07:15:15;;;;;;;10.63;1.65;;;;;;;32.99;23.29;98952.81;5132811;27;20090;-48
2023/08/08 07:17:41;;;;;;;7.90;1.58;;;;;;;32.51;24.11;98954.44;5132850;27;20023;-47
2023/08/08 07:20:07;;;;;;;8.00;2.05;;;;;;;31.68;24.65;98955.53;5131532;27;20038;-48
2023/08/08 07:22:33;;;;;;;93.68;7.53;;;;;;;30.89;25.88;98953.44;5133007;27;20423;-48
2023/08/08 07:24:59;;;;;;;133.10;9.55;;;;;;;30.74;26.66;98949.31;5131466;28;20019;-48
2023/08/08 07:27:27;;;;;;;20.52;2.53;;;;;;;30.93;26.13;98954.34;5133017;27;20396;-48
2023/08/08 07:29:52;;;;;;;9.80;1.90;;;;;;;31.85;24.89;98947.19;5132684;27;20034;-45
2023/08/08 07:32:18;;;;;;;11.32;2.17;;;;;;;32.34;24.16;98946.53;5131350;28;20027;-47
2023/08/08 07:34:43;;;;;;;7.93;1.70;;;;;;;32.88;23.08;98942.75;5131351;28;20078;-48
2023/08/08 07:37:09;;;;;;;5.45;2.00;;;;;;;33.33;22.38;98941.75;5132681;27;20015;-48
2023/08/08 07:39:35;;;;;;;5.10;1.52;;;;;;;33.55;21.86;98934.97;5132682;27;20392;-48
2023/08/08 07:42:00;;;;;;;9.18;1.90;;;;;;;33.89;21.79;98940.97;5131135;28;20023;-48
2023/08/08 07:44:26;;;;;;;10.35;1.83;;;;;;;34.70;20.86;98937.88;5132653;27;20034;-47
2023/08/08 07:46:52;;;;;;;28.05;3.28;;;;;;;35.25;20.37;98935.16;5132566;27;20026;-48
2023/08/08 07:49:17;;;;;;;12.50;1.90;;;;;;;35.54;19.99;98931.81;5131253;28;20034;-47
2023/08/08 07:51:43;;;;;;;11.35;1.40;;;;;;;35.37;19.70;98937.72;5132850;27;20058;-47
2023/08/08 07:54:10;;;;;;;6.95;1.38;;;;;;;34.51;19.87;98927.66;5132517;27;20447;-47
2023/08/08 07:56:36;;;;;;;7.38;1.50;;;;;;;33.30;21.12;98931.56;5132411;27;20037;-47
2023/08/08 07:59:03;;;;;;;9.57;1.60;;;;;;;32.35;22.30;98929.88;5131112;28;20480;-47
2023/08/08 08:01:29;;;;;;;11.38;2.13;;;;;;;32.02;22.73;98928.03;5132635;27;20015;-47
2023/08/08 08:03:55;;;;;;;20.13;2.45;;;;;;;32.47;22.91;98931.78;5131090;28;20110;-48
2023/08/08 08:06:21;;;;;;;3.05;1.40;;;;;;;32.54;22.35;98926.59;5131114;28;20095;-47
2023/08/08 08:08:47;;;;;;;10.75;1.92;;;;;;;32.06;23.21;98933.59;5132385;27;20027;-48
2023/08/08 08:11:13;;;;;;;10.57;1.98;;;;;;;31.57;23.61;98928.00;5132183;28;20058;-48
2023/08/08 08:13:39;;;;;;;2.75;1.25;;;;;;;31.16;24.19;98940.47;5132297;27;20030;-47
2023/08/08 08:16:06;;;;;;;4.70;1.60;;;;;;;30.72;24.41;98938.03;5131142;28;20075;-48
2023/08/08 08:18:33;;;;;;;9.15;1.52;;;;;;;30.17;25.25;98941.63;5132319;27;20496;-48
2023/08/08 08:20:59;;;;;;;4.45;1.65;;;;;;;30.24;25.25;98933.78;5135201;27;20026;-47
2023/08/08 08:23:24;;;;;;;5.90;1.42;;;;;;;30.97;24.93;98933.59;5134701;27;20400;-47
2023/08/08 08:25:50;;;;;;;6.20;1.38;;;;;;;31.14;24.40;98924.53;5136013;27;20034;-47
2023/08/08 08:28:17;;;;;;;5.57;1.60;;;;;;;31.34;24.13;98931.06;5135948;27;20019;-47
2023/08/08 08:30:43;;;;;;;11.82;2.67;;;;;;;31.27;23.88;98936.25;5134637;27;20514;-48
2023/08/08 08:33:08;;;;;;;5.10;1.75;;;;;;;30.86;24.14;98935.84;5134564;27;20031;-47
2023/08/08 08:35:36;;;;;;;8.55;2.15;;;;;;;30.66;24.49;98934.69;5135760;27;20476;-47
2023/08/08 08:38:02;;;;;;;25.63;5.78;;;;;;;30.40;24.60;98932.13;5135745;27;20023;-48
2023/08/08 08:40:29;;;;;;;25.35;12.57;;;;;;;29.98;25.53;98940.09;5134443;27;20027;-48
2023/08/08 08:42:55;;;;;;;10.60;2.28;;;;;;;29.87;25.73;98936.13;5134252;27;20016;-48
2023/08/08 08:45:22;;;;;;;8.43;2.00;;;;;;;30.25;25.65;98938.09;5135657;27;20019;-47
2023/08/08 08:47:51;;;;;;;12.13;1.80;;;;;;;30.37;25.60;98942.84;5134305;27;20106;-48
2023/08/08 08:50:18;;;;;;;26.05;3.50;;;;;;;30.29;25.65;98947.16;5135609;27;20027;-47
2023/08/08 08:52:44;;;;;;;15.18;2.15;;;;;;;29.93;25.93;98944.88;5134523;27;20019;-48
2023/08/08 08:55:09;;;;;;;17.17;2.10;;;;;;;29.80;25.99;98941.22;5135576;27;20533;-47
2023/08/08 08:57:37;;;;;;;8.60;1.85;;;;;;;29.50;26.37;98943.00;5134088;27;20071;-48
2023/08/08 09:00:03;;;;;;;9.60;2.47;;;;;;;29.29;26.69;98940.94;5135324;27;20070;-47
2023/08/08 09:02:29;;;;;;;10.95;2.03;;;;;;;29.31;26.35;98944.13;5135269;27;20047;-47
2023/08/08 09:05:01;;;;;;;12.50;1.35;;;;;;;29.33;26.17;98941.13;5135327;27;20453;-48
2023/08/08 09:07:31;;;;;;;11.38;3.92;;;;;;;29.42;26.42;98947.31;5135197;27;20034;-47
2023/08/08 09:09:57;;;;;;;8.73;1.40;;;;;;;29.24;26.16;98946.53;5134840;27;20060;-48
2023/08/08 09:12:24;;;;;;;5.93;3.42;;;;;;;29.03;26.65;98940.91;5135223;27;20039;-47
2023/08/08 09:14:56;;;;;;;8.55;1.60;;;;;;;29.08;26.71;98944.25;5135027;27;20489;-47
2023/08/08 09:17:22;;;;;;;11.73;2.38;;;;;;;29.47;26.16;98941.75;5133780;27;20030;-48
2023/08/08 09:19:47;;;;;;;19.25;2.92;;;;;;;29.90;26.34;98940.09;5134969;27;20031;-48
2023/08/08 09:22:14;;;;;;;46.05;4.60;;;;;;;30.40;25.71;98936.75;5133568;27;20092;-48
2023/08/08 09:24:41;;;;;;;5.63;1.33;;;;;;;30.83;25.33;98936.53;5134967;27;20038;-48
2023/08/08 09:27:10;;;;;;;19.08;2.55;;;;;;;31.36;24.58;98939.66;5134904;27;20110;-48
2023/08/08 09:29:36;;;;;;;10.23;1.75;;;;;;;32.05;24.05;98934.72;5133534;27;20488;-48
2023/08/08 09:32:08;;;;;;;13.88;3.00;;;;;;;32.39;23.60;98930.75;5133807;27;20459;-48
2023/08/08 09:34:34;;;;;;;25.05;3.05;;;;;;;33.07;22.69;98915.75;5133435;27;20027;-48
2023/08/08 09:37:00;;;;;;;13.25;2.85;;;;;;;34.20;21.47;98923.84;5134577;27;20484;-48
2023/08/08 09:39:28;;;;;;;10.30;1.27;;;;;;;36.04;18.54;98921.03;5134583;27;20023;-46
2023/08/08 09:41:55;;;;;;;3.88;0.88;;;;;;;37.45;17.22;98910.88;5134533;27;20023;-48
2023/08/08 09:44:27;;;;;;;23.23;2.17;;;;;;;38.55;16.08;98912.22;5133284;27;20031;-48
2023/08/08 09:46:53;;;;;;;5.28;0.90;;;;;;;39.38;15.85;98907.84;5134444;27;20110;-49
2023/08/08 09:49:21;;;;;;;8.98;1.65;;;;;;;40.04;15.22;98906.81;5134437;27;20107;-48
2023/08/08 09:51:48;;;;;;;9.82;1.40;;;;;;;40.37;15.09;98896.56;5134270;27;20019;-48
2023/08/08 09:54:15;;;;;;;12.30;1.75;;;;;;;39.97;15.36;98904.06;5134241;27;20106;-48
2023/08/08 09:56:41;;;;;;;23.70;2.55;;;;;;;38.54;16.07;98905.16;5134285;27;20047;-48
2023/08/08 09:59:08;;;;;;;5.38;1.33;;;;;;;37.87;16.46;98906.19;5132969;27;20076;-49
2023/08/08 10:01:34;;;;;;;3.72;0.80;;;;;;;38.35;16.29;98901.50;5134120;27;20107;-49
2023/08/08 10:04:03;;;;;;;5.53;1.30;;;;;;;38.75;16.23;98899.00;5134109;27;20552;-48
2023/08/08 10:06:29;;;;;;;48.72;3.60;;;;;;;38.93;16.38;98907.31;5134053;27;20098;-48
2023/08/08 10:08:55;;;;;;;6.75;0.98;;;;;;;39.63;15.92;98907.16;5132708;27;20588;-48
2023/08/08 10:11:23;;;;;;;13.38;1.95;;;;;;;40.42;15.18;98896.94;5132532;27;20055;-49
2023/08/08 10:13:50;;;;;;;9.35;1.30;;;;;;;41.15;14.43;98903.00;5134162;27;20087;-48
2023/08/08 10:16:18;;;;;;;2.55;0.82;;;;;;;41.48;13.94;98899.69;5133806;27;20072;-49
2023/08/08 10:18:56;;;;;;;3.08;1.02;;;;;;;41.80;13.47;98893.19;5133819;27;20094;-49
2023/08/08 10:21:24;;;;;;;4.07;0.75;;;;;;;41.35;13.66;98893.06;5133822;27;20027;-49
2023/08/08 10:23:49;;;;;;;10.32;1.40;;;;;;;41.03;14.46;98884.97;5133665;27;20488;-49
2023/08/08 10:26:20;;;;;;;4.72;1.30;;;;;;;40.58;14.50;98880.00;5132330;27;20053;-49
2023/08/08 10:28:59;;;;;;;6.78;1.50;;;;;;;39.80;15.02;98876.16;5133626;27;20023;-49
2023/08/08 10:31:25;;;;;;;1.00;0.75;;;;;;;38.86;15.20;98877.06;5133686;27;20030;-48
2023/08/08 10:34:02;;;;;;;25.33;2.67;;;;;;;38.05;16.25;98879.72;5133513;27;20023;-49
2023/08/08 10:36:43;;;;;;;5.85;1.10;;;;;;;37.81;16.62;98875.59;5133477;27;20105;-49
2023/08/08 10:39:16;;;;;;;8.00;1.35;;;;;;;38.30;16.39;98865.44;5133518;27;20507;-49
2023/08/08 10:41:50;;;;;;;9.32;1.52;;;;;;;37.86;16.37;98858.03;5133394;27;20019;-49
2023/08/08 10:44:25;;;;;;;1.73;0.88;;;;;;;38.43;16.15;98868.63;5114896;27;20031;-48
2023/08/08 10:46:53;;;;;;;1.60;0.80;;;;;;;39.15;15.72;98867.78;5133322;27;20011;-49
2023/08/08 10:49:19;;;;;;;1.17;0.80;;;;;;;38.98;15.51;98868.56;5133302;27;20019;-48
2023/08/08 10:51:47;;;;;;;2.80;1.10;;;;;;;39.10;15.91;98861.91;5133250;27;20481;-49
2023/08/08 10:54:22;;;;;;;4.45;0.80;;;;;;;39.12;15.74;98859.53;5133212;27;20039;-48
2023/08/08 10:56:50;;;;;;;7.25;1.27;;;;;;;39.18;15.65;98862.72;5133077;27;20011;-48
2023/08/08 10:59:21;;;;;;;8.13;1.85;;;;;;;39.54;15.34;98847.91;5133147;27;20023;-48
2023/08/08 11:01:49;;;;;;;2.08;1.10;;;;;;;39.83;15.11;98836.91;5133073;27;20023;-48
2023/08/08 11:04:18;;;;;;;2.53;0.65;;;;;;;39.93;14.88;98827.88;5131713;27;20024;-48
2023/08/08 11:06:44;;;;;;;9.23;1.65;;;;;;;39.87;14.90;98836.94;5132961;27;20019;-48
2023/08/08 11:09:10;;;;;;;3.83;1.15;;;;;;;39.60;14.80;98831.78;5133041;27;20198;-48
2023/08/08 11:11:40;;;;;;;4.68;1.33;;;;;;;39.12;15.23;98838.41;5132723;27;20527;-49
2023/08/08 11:14:16;;;;;;;3.70;0.68;;;;;;;38.83;15.39;98836.72;5132949;27;20396;-48
2023/08/08 11:16:43;;;;;;;119.25;11.68;;;;;;;37.93;15.44;98841.66;5132938;27;20029;-48
2023/08/08 11:19:09;;;;;;;5.97;1.02;;;;;;;37.49;16.11;98847.91;5132866;27;20047;-48
2023/08/08 11:21:37;;;;;;;2.85;0.80;;;;;;;37.49;15.71;98848.72;5131410;27;20023;-48
2023/08/08 11:24:06;;;;;;;2.15;0.80;;;;;;;36.46;17.18;98849.03;5131475;27;20019;-49
2023/08/08 11:26:32;;;;;;;24.20;2.88;;;;;;;36.28;17.56;98829.69;5132771;27;20091;-48
2023/08/08 11:29:03;;;;;;;15.68;2.10;;;;;;;36.90;16.73;98820.31;5132784;27;20419;-48